sensor_id;sensor_type;location;lat;lon;timestamp;pressure;altitude;pressure_sealevel;temperature;humidity
60583;BME280;46415;47.536;19.066;2022-11-18T00:00:28;99052.84;;;6.59;100.00
60583;BME280;46415;47.536;19.066;2022-11-18T00:03:31;99053.75;;;6.57;100.00
60583;BME280;46415;47.536;19.066;2022-11-18T00:06:34;99043.13;;;6.46;100.00
60583;BME280;46415;47.536;19.066;2022-11-18T00:09:36;99045.47;;;6.51;100.00
60583;BME280;46415;47.536;19.066;2022-11-18T00:12:39;99043.81;;;6.50;100.00
60583;BME280;46415;47.536;19.066;2022-11-18T00:16:17;99041.53;;;6.44;100.00
60583;BME280;46415;47.536;19.066;2022-11-18T00:19:27;99040.00;;;6.40;100.00
60583;BME280;46415;47.536;19.066;2022-11-18T00:22:31;99037.59;;;6.37;100.00
60583;BME280;46415;47.536;19.066;2022-11-18T00:25:33;99040.22;;;6.35;100.00
60583;BME280;46415;47.536;19.066;2022-11-18T00:28:36;99041.59;;;6.25;100.00
60583;BME280;46415;47.536;19.066;2022-11-18T00:31:39;99042.78;;;6.18;100.00
60583;BME280;46415;47.536;19.066;2022-11-18T00:34:43;99029.84;;;6.20;100.00
60583;BME280;46415;47.536;19.066;2022-11-18T00:37:45;99030.25;;;6.10;100.00
60583;BME280;46415;47.536;19.066;2022-11-18T00:40:48;99025.00;;;6.31;100.00
60583;BME280;46415;47.536;19.066;2022-11-18T00:43:50;99018.41;;;6.25;100.00
60583;BME280;46415;47.536;19.066;2022-11-18T00:46:53;99015.47;;;6.14;100.00
60583;BME280;46415;47.536;19.066;2022-11-18T00:49:56;99018.44;;;6.06;100.00
60583;BME280;46415;47.536;19.066;2022-11-18T00:52:59;99003.28;;;6.00;100.00
60583;BME280;46415;47.536;19.066;2022-11-18T00:56:01;98999.91;;;5.98;100.00
60583;BME280;46415;47.536;19.066;2022-11-18T00:59:04;98999.84;;;6.00;100.00
60583;BME280;46415;47.536;19.066;2022-11-18T01:02:07;99009.44;;;5.96;100.00
60583;BME280;46415;47.536;19.066;2022-11-18T01:05:10;99011.41;;;5.91;100.00
60583;BME280;46415;47.536;19.066;2022-11-18T01:08:13;99013.34;;;5.86;100.00
60583;BME280;46415;47.536;19.066;2022-11-18T01:11:16;98999.62;;;5.86;100.00
60583;BME280;46415;47.536;19.066;2022-11-18T01:14:37;98994.53;;;5.84;100.00
60583;BME280;46415;47.536;19.066;2022-11-18T01:17:43;98995.28;;;5.88;100.00
60583;BME280;46415;47.536;19.066;2022-11-18T01:20:46;98993.53;;;5.88;100.00
60583;BME280;46415;47.536;19.066;2022-11-18T01:23:49;99001.28;;;5.87;100.00
60583;BME280;46415;47.536;19.066;2022-11-18T01:26:51;98993.19;;;5.96;100.00
60583;BME280;46415;47.536;19.066;2022-11-18T01:29:54;98985.25;;;6.00;100.00
60583;BME280;46415;47.536;19.066;2022-11-18T01:32:57;98976.81;;;5.97;100.00
60583;BME280;46415;47.536;19.066;2022-11-18T01:36:00;98977.81;;;5.94;100.00
60583;BME280;46415;47.536;19.066;2022-11-18T01:39:03;98981.34;;;5.92;100.00
60583;BME280;46415;47.536;19.066;2022-11-18T01:42:13;98996.84;;;5.90;100.00
60583;BME280;46415;47.536;19.066;2022-11-18T01:45:42;99007.16;;;5.90;100.00
60583;BME280;46415;47.536;19.066;2022-11-18T01:48:49;98994.41;;;6.06;100.00
60583;BME280;46415;47.536;19.066;2022-11-18T01:51:56;99001.63;;;6.17;100.00
60583;BME280;46415;47.536;19.066;2022-11-18T01:55:05;98998.72;;;6.05;100.00
60583;BME280;46415;47.536;19.066;2022-11-18T01:58:13;98997.41;;;5.97;100.00
60583;BME280;46415;47.536;19.066;2022-11-18T02:01:17;99009.72;;;5.90;100.00
60583;BME280;46415;47.536;19.066;2022-11-18T02:04:20;99010.81;;;5.85;100.00
60583;BME280;46415;47.536;19.066;2022-11-18T02:07:24;99010.19;;;5.80;100.00
60583;BME280;46415;47.536;19.066;2022-11-18T02:10:27;98999.00;;;5.81;100.00
60583;BME280;46415;47.536;19.066;2022-11-18T02:13:30;98992.38;;;6.12;100.00
60583;BME280;46415;47.536;19.066;2022-11-18T02:23:49;98991.16;;;5.84;100.00
60583;BME280;46415;47.536;19.066;2022-11-18T02:30:25;99001.81;;;5.76;100.00
60583;BME280;46415;47.536;19.066;2022-11-18T02:33:38;98994.00;;;5.78;100.00
60583;BME280;46415;47.536;19.066;2022-11-18T02:36:57;98988.78;;;5.79;100.00
60583;BME280;46415;47.536;19.066;2022-11-18T02:40:29;98975.97;;;5.96;100.00
60583;BME280;46415;47.536;19.066;2022-11-18T02:43:46;98975.06;;;5.97;100.00
60583;BME280;46415;47.536;19.066;2022-11-18T02:46:55;98960.66;;;6.12;100.00
60583;BME280;46415;47.536;19.066;2022-11-18T02:50:07;98964.66;;;6.18;100.00
60583;BME280;46415;47.536;19.066;2022-11-18T02:53:14;98952.09;;;6.29;100.00
60583;BME280;46415;47.536;19.066;2022-11-18T02:56:21;98953.91;;;6.27;100.00
60583;BME280;46415;47.536;19.066;2022-11-18T02:59:27;98945.12;;;6.31;100.00
60583;BME280;46415;47.536;19.066;2022-11-18T03:02:44;98941.56;;;6.33;100.00
60583;BME280;46415;47.536;19.066;2022-11-18T03:06:04;98935.25;;;6.39;100.00
60583;BME280;46415;47.536;19.066;2022-11-18T03:16:05;98940.72;;;6.50;100.00
60583;BME280;46415;47.536;19.066;2022-11-18T03:19:17;98938.91;;;6.52;100.00
60583;BME280;46415;47.536;19.066;2022-11-18T03:22:29;98931.78;;;6.57;100.00
60583;BME280;46415;47.536;19.066;2022-11-18T03:25:49;98939.13;;;6.65;100.00
60583;BME280;46415;47.536;19.066;2022-11-18T03:29:00;98951.78;;;6.69;100.00
60583;BME280;46415;47.536;19.066;2022-11-18T03:32:13;98951.09;;;6.66;100.00
60583;BME280;46415;47.536;19.066;2022-11-18T03:35:22;98944.09;;;6.68;100.00
60583;BME280;46415;47.536;19.066;2022-11-18T03:38:28;98945.56;;;6.73;100.00
60583;BME280;46415;47.536;19.066;2022-11-18T03:41:39;98957.84;;;6.68;100.00
60583;BME280;46415;47.536;19.066;2022-11-18T03:44:49;98946.78;;;6.66;100.00
60583;BME280;46415;47.536;19.066;2022-11-18T03:48:08;98949.75;;;6.59;100.00
60583;BME280;46415;47.536;19.066;2022-11-18T03:51:16;98963.53;;;6.57;100.00
60583;BME280;46415;47.536;19.066;2022-11-18T03:54:23;98968.56;;;6.61;100.00
60583;BME280;46415;47.536;19.066;2022-11-18T03:57:33;98975.22;;;6.65;100.00
60583;BME280;46415;47.536;19.066;2022-11-18T04:00:45;98970.00;;;6.66;100.00
60583;BME280;46415;47.536;19.066;2022-11-18T04:03:49;98963.41;;;6.61;100.00
60583;BME280;46415;47.536;19.066;2022-11-18T04:10:16;98970.81;;;6.67;100.00
60583;BME280;46415;47.536;19.066;2022-11-18T04:13:43;98964.34;;;6.75;100.00
60583;BME280;46415;47.536;19.066;2022-11-18T04:16:49;98953.31;;;6.73;100.00
60583;BME280;46415;47.536;19.066;2022-11-18T04:19:52;98935.25;;;6.73;100.00
60583;BME280;46415;47.536;19.066;2022-11-18T04:22:55;98921.34;;;6.76;100.00
60583;BME280;46415;47.536;19.066;2022-11-18T04:25:58;98917.63;;;6.81;100.00
60583;BME280;46415;47.536;19.066;2022-11-18T04:29:01;98913.38;;;6.80;100.00
60583;BME280;46415;47.536;19.066;2022-11-18T04:32:04;98912.06;;;6.73;100.00
60583;BME280;46415;47.536;19.066;2022-11-18T04:35:07;98902.56;;;6.74;100.00
60583;BME280;46415;47.536;19.066;2022-11-18T04:38:10;98903.63;;;6.70;100.00
60583;BME280;46415;47.536;19.066;2022-11-18T04:41:13;98899.50;;;6.83;100.00
60583;BME280;46415;47.536;19.066;2022-11-18T04:44:15;98895.75;;;6.73;100.00
60583;BME280;46415;47.536;19.066;2022-11-18T04:47:18;98907.03;;;6.70;100.00
60583;BME280;46415;47.536;19.066;2022-11-18T04:50:21;98911.53;;;6.67;100.00
60583;BME280;46415;47.536;19.066;2022-11-18T04:53:23;98917.59;;;6.66;100.00
60583;BME280;46415;47.536;19.066;2022-11-18T04:56:26;98912.50;;;6.64;100.00
60583;BME280;46415;47.536;19.066;2022-11-18T04:59:29;98921.69;;;6.70;100.00
60583;BME280;46415;47.536;19.066;2022-11-18T05:02:32;98929.47;;;6.68;100.00
60583;BME280;46415;47.536;19.066;2022-11-18T05:05:35;98934.50;;;6.71;100.00
60583;BME280;46415;47.536;19.066;2022-11-18T05:08:38;98937.00;;;6.73;100.00
60583;BME280;46415;47.536;19.066;2022-11-18T05:11:40;98927.84;;;6.67;100.00
60583;BME280;46415;47.536;19.066;2022-11-18T05:15:02;98925.84;;;6.72;100.00
60583;BME280;46415;47.536;19.066;2022-11-18T05:18:05;98917.53;;;6.67;100.00
60583;BME280;46415;47.536;19.066;2022-11-18T05:21:07;98904.78;;;6.64;100.00
60583;BME280;46415;47.536;19.066;2022-11-18T05:24:10;98901.88;;;6.70;100.00
60583;BME280;46415;47.536;19.066;2022-11-18T05:27:14;98907.50;;;6.78;100.00
60583;BME280;46415;47.536;19.066;2022-11-18T05:30:17;98912.41;;;6.83;100.00
60583;BME280;46415;47.536;19.066;2022-11-18T05:33:19;98914.16;;;6.82;100.00
60583;BME280;46415;47.536;19.066;2022-11-18T05:36:22;98906.25;;;6.85;100.00
60583;BME280;46415;47.536;19.066;2022-11-18T05:39:25;98904.94;;;6.94;100.00
60583;BME280;46415;47.536;19.066;2022-11-18T05:42:28;98903.13;;;6.96;100.00
60583;BME280;46415;47.536;19.066;2022-11-18T05:45:50;98901.44;;;6.95;100.00
60583;BME280;46415;47.536;19.066;2022-11-18T05:48:53;98902.81;;;7.02;100.00
60583;BME280;46415;47.536;19.066;2022-11-18T05:51:55;98894.97;;;7.04;100.00
60583;BME280;46415;47.536;19.066;2022-11-18T05:54:58;98894.31;;;7.16;100.00
60583;BME280;46415;47.536;19.066;2022-11-18T05:58:01;98905.78;;;7.10;100.00
60583;BME280;46415;47.536;19.066;2022-11-18T06:01:06;98913.25;;;6.99;100.00
60583;BME280;46415;47.536;19.066;2022-11-18T06:07:40;98890.63;;;7.04;100.00
60583;BME280;46415;47.536;19.066;2022-11-18T06:10:44;98900.12;;;7.04;100.00
60583;BME280;46415;47.536;19.066;2022-11-18T06:13:55;98905.13;;;7.07;100.00
60583;BME280;46415;47.536;19.066;2022-11-18T06:17:05;98908.97;;;7.15;100.00
60583;BME280;46415;47.536;19.066;2022-11-18T06:20:11;98912.28;;;7.17;100.00
60583;BME280;46415;47.536;19.066;2022-11-18T06:23:14;98907.00;;;7.20;100.00
60583;BME280;46415;47.536;19.066;2022-11-18T06:26:16;98910.31;;;7.22;100.00
60583;BME280;46415;47.536;19.066;2022-11-18T06:29:20;98905.81;;;7.26;100.00
60583;BME280;46415;47.536;19.066;2022-11-18T06:32:28;98896.75;;;7.34;100.00
60583;BME280;46415;47.536;19.066;2022-11-18T06:35:31;98899.25;;;7.36;100.00
60583;BME280;46415;47.536;19.066;2022-11-18T06:38:34;98905.00;;;7.41;100.00
60583;BME280;46415;47.536;19.066;2022-11-18T06:41:37;98899.81;;;7.41;100.00
60583;BME280;46415;47.536;19.066;2022-11-18T06:44:39;98902.06;;;7.47;100.00
60583;BME280;46415;47.536;19.066;2022-11-18T06:47:42;98892.59;;;7.48;100.00
60583;BME280;46415;47.536;19.066;2022-11-18T06:50:45;98896.06;;;7.47;100.00
60583;BME280;46415;47.536;19.066;2022-11-18T06:53:48;98897.81;;;7.46;100.00
60583;BME280;46415;47.536;19.066;2022-11-18T06:56:50;98903.09;;;7.45;100.00
60583;BME280;46415;47.536;19.066;2022-11-18T06:59:53;98898.00;;;7.43;100.00
60583;BME280;46415;47.536;19.066;2022-11-18T07:03:04;98904.66;;;7.47;100.00
60583;BME280;46415;47.536;19.066;2022-11-18T07:06:08;98910.66;;;7.48;100.00
60583;BME280;46415;47.536;19.066;2022-11-18T07:09:11;98912.06;;;7.53;100.00
60583;BME280;46415;47.536;19.066;2022-11-18T07:12:14;98906.00;;;7.54;100.00
60583;BME280;46415;47.536;19.066;2022-11-18T07:15:16;98906.31;;;7.48;100.00
60583;BME280;46415;47.536;19.066;2022-11-18T07:18:19;98903.50;;;7.53;100.00
60583;BME280;46415;47.536;19.066;2022-11-18T07:21:24;98908.84;;;7.50;100.00
60583;BME280;46415;47.536;19.066;2022-11-18T07:24:27;98905.66;;;7.60;100.00
60583;BME280;46415;47.536;19.066;2022-11-18T07:27:30;98902.06;;;7.63;100.00
60583;BME280;46415;47.536;19.066;2022-11-18T07:30:32;98895.31;;;7.60;100.00
60583;BME280;46415;47.536;19.066;2022-11-18T07:33:35;98903.84;;;7.62;100.00
60583;BME280;46415;47.536;19.066;2022-11-18T07:36:39;98892.97;;;7.71;100.00
60583;BME280;46415;47.536;19.066;2022-11-18T07:39:41;98891.53;;;7.82;100.00
60583;BME280;46415;47.536;19.066;2022-11-18T07:42:44;98875.97;;;7.83;100.00
60583;BME280;46415;47.536;19.066;2022-11-18T07:45:56;98884.62;;;7.82;100.00
60583;BME280;46415;47.536;19.066;2022-11-18T07:49:00;98878.75;;;7.80;100.00
60583;BME280;46415;47.536;19.066;2022-11-18T07:52:03;98864.47;;;7.89;100.00
60583;BME280;46415;47.536;19.066;2022-11-18T07:55:06;98857.37;;;7.92;100.00
60583;BME280;46415;47.536;19.066;2022-11-18T07:58:09;98851.53;;;7.89;100.00
60583;BME280;46415;47.536;19.066;2022-11-18T08:01:23;98848.81;;;7.92;100.00
60583;BME280;46415;47.536;19.066;2022-11-18T08:04:26;98841.78;;;7.94;100.00
60583;BME280;46415;47.536;19.066;2022-11-18T08:07:29;98842.81;;;8.05;100.00
60583;BME280;46415;47.536;19.066;2022-11-18T08:10:32;98837.06;;;8.16;100.00
60583;BME280;46415;47.536;19.066;2022-11-18T08:13:35;98851.88;;;8.12;100.00
60583;BME280;46415;47.536;19.066;2022-11-18T08:16:38;98875.53;;;8.20;100.00
60583;BME280;46415;47.536;19.066;2022-11-18T08:19:41;98869.62;;;8.18;100.00
60583;BME280;46415;47.536;19.066;2022-11-18T08:22:44;98867.47;;;8.11;100.00
60583;BME280;46415;47.536;19.066;2022-11-18T08:25:46;98872.81;;;8.08;100.00
60583;BME280;46415;47.536;19.066;2022-11-18T08:28:49;98872.75;;;8.09;100.00
60583;BME280;46415;47.536;19.066;2022-11-18T08:31:52;98870.25;;;8.08;100.00
60583;BME280;46415;47.536;19.066;2022-11-18T08:34:56;98864.31;;;8.06;100.00
60583;BME280;46415;47.536;19.066;2022-11-18T08:37:58;98853.25;;;8.04;100.00
60583;BME280;46415;47.536;19.066;2022-11-18T08:41:01;98858.78;;;7.98;100.00
60583;BME280;46415;47.536;19.066;2022-11-18T08:44:05;98856.19;;;7.98;100.00
60583;BME280;46415;47.536;19.066;2022-11-18T08:47:08;98844.91;;;7.99;100.00
60583;BME280;46415;47.536;19.066;2022-11-18T08:50:11;98838.94;;;7.98;100.00
60583;BME280;46415;47.536;19.066;2022-11-18T08:53:14;98836.44;;;7.97;100.00
60583;BME280;46415;47.536;19.066;2022-11-18T08:56:18;98834.78;;;7.96;100.00
60583;BME280;46415;47.536;19.066;2022-11-18T08:59:22;98834.69;;;7.97;100.00
60583;BME280;46415;47.536;19.066;2022-11-18T09:02:24;98832.28;;;7.94;100.00
60583;BME280;46415;47.536;19.066;2022-11-18T09:05:27;98829.41;;;7.99;100.00
60583;BME280;46415;47.536;19.066;2022-11-18T09:08:29;98825.06;;;8.15;100.00
60583;BME280;46415;47.536;19.066;2022-11-18T09:11:33;98827.50;;;8.02;100.00
60583;BME280;46415;47.536;19.066;2022-11-18T09:14:36;98822.69;;;7.96;100.00
60583;BME280;46415;47.536;19.066;2022-11-18T09:17:58;98836.72;;;7.92;100.00
60583;BME280;46415;47.536;19.066;2022-11-18T09:21:04;98832.47;;;7.61;100.00
60583;BME280;46415;47.536;19.066;2022-11-18T09:24:07;98822.63;;;7.68;100.00
60583;BME280;46415;47.536;19.066;2022-11-18T09:27:10;98821.72;;;7.53;100.00
60583;BME280;46415;47.536;19.066;2022-11-18T09:30:19;98815.91;;;7.50;100.00
60583;BME280;46415;47.536;19.066;2022-11-18T09:33:21;98818.22;;;7.54;100.00
60583;BME280;46415;47.536;19.066;2022-11-18T09:36:25;98821.38;;;7.59;100.00
60583;BME280;46415;47.536;19.066;2022-11-18T09:39:28;98815.78;;;7.51;100.00
60583;BME280;46415;47.536;19.066;2022-11-18T09:45:46;98809.47;;;7.57;100.00
60583;BME280;46415;47.536;19.066;2022-11-18T09:48:56;98811.37;;;7.53;100.00
60583;BME280;46415;47.536;19.066;2022-11-18T09:52:35;98808.25;;;7.48;100.00
60583;BME280;46415;47.536;19.066;2022-11-18T09:55:40;98801.75;;;7.41;100.00
60583;BME280;46415;47.536;19.066;2022-11-18T09:58:43;98801.75;;;7.41;100.00
60583;BME280;46415;47.536;19.066;2022-11-18T10:01:48;98792.59;;;7.35;100.00
60583;BME280;46415;47.536;19.066;2022-11-18T10:05:00;98783.13;;;7.36;100.00
60583;BME280;46415;47.536;19.066;2022-11-18T10:11:23;98771.88;;;7.37;100.00
60583;BME280;46415;47.536;19.066;2022-11-18T10:18:36;98759.31;;;7.31;100.00
60583;BME280;46415;47.536;19.066;2022-11-18T10:22:22;98752.50;;;7.30;100.00
60583;BME280;46415;47.536;19.066;2022-11-18T10:25:27;98752.91;;;7.38;100.00
60583;BME280;46415;47.536;19.066;2022-11-18T10:28:30;98746.06;;;7.37;100.00
60583;BME280;46415;47.536;19.066;2022-11-18T10:31:36;98744.75;;;7.30;100.00
60583;BME280;46415;47.536;19.066;2022-11-18T10:35:19;98738.13;;;7.26;100.00
60583;BME280;46415;47.536;19.066;2022-11-18T10:38:24;98741.63;;;7.39;100.00
60583;BME280;46415;47.536;19.066;2022-11-18T10:41:26;98742.31;;;7.43;100.00
60583;BME280;46415;47.536;19.066;2022-11-18T10:44:38;98739.31;;;7.50;100.00
60583;BME280;46415;47.536;19.066;2022-11-18T10:47:41;98739.16;;;7.37;100.00
60583;BME280;46415;47.536;19.066;2022-11-18T10:50:48;98735.47;;;7.42;100.00
60583;BME280;46415;47.536;19.066;2022-11-18T10:54:25;98733.81;;;7.41;100.00
60583;BME280;46415;47.536;19.066;2022-11-18T10:57:30;98740.03;;;7.52;100.00
60583;BME280;46415;47.536;19.066;2022-11-18T11:04:22;98735.06;;;7.49;100.00
60583;BME280;46415;47.536;19.066;2022-11-18T11:07:26;98735.97;;;7.48;100.00
60583;BME280;46415;47.536;19.066;2022-11-18T11:10:30;98736.09;;;7.61;100.00
60583;BME280;46415;47.536;19.066;2022-11-18T11:13:43;98743.94;;;7.59;100.00
60583;BME280;46415;47.536;19.066;2022-11-18T11:20:09;98737.97;;;7.43;100.00
60583;BME280;46415;47.536;19.066;2022-11-18T11:23:16;98741.19;;;7.32;100.00
60583;BME280;46415;47.536;19.066;2022-11-18T11:30:01;98736.13;;;7.00;100.00
60583;BME280;46415;47.536;19.066;2022-11-18T11:33:36;98746.22;;;6.88;100.00
60583;BME280;46415;47.536;19.066;2022-11-18T11:36:46;98742.87;;;7.02;100.00
60583;BME280;46415;47.536;19.066;2022-11-18T11:50:43;98753.34;;;6.68;100.00
60583;BME280;46415;47.536;19.066;2022-11-18T11:54:23;98747.78;;;6.75;100.00
60583;BME280;46415;47.536;19.066;2022-11-18T12:00:58;98756.88;;;6.67;100.00
60583;BME280;46415;47.536;19.066;2022-11-18T12:04:27;98739.88;;;6.63;100.00
60583;BME280;46415;47.536;19.066;2022-11-18T12:07:37;98741.72;;;6.61;100.00
60583;BME280;46415;47.536;19.066;2022-11-18T12:14:27;98744.88;;;6.66;100.00
60583;BME280;46415;47.536;19.066;2022-11-18T12:20:53;98723.44;;;6.65;100.00
60583;BME280;46415;47.536;19.066;2022-11-18T12:30:31;98716.34;;;6.53;100.00
60583;BME280;46415;47.536;19.066;2022-11-18T12:36:53;98702.47;;;6.55;100.00
60583;BME280;46415;47.536;19.066;2022-11-18T12:43:03;98697.72;;;6.64;100.00
60583;BME280;46415;47.536;19.066;2022-11-18T12:55:42;98699.16;;;6.53;100.00
60583;BME280;46415;47.536;19.066;2022-11-18T12:58:56;98698.13;;;6.40;100.00
60583;BME280;46415;47.536;19.066;2022-11-18T13:02:28;98698.31;;;6.37;100.00
60583;BME280;46415;47.536;19.066;2022-11-18T13:05:32;98702.47;;;6.40;100.00
60583;BME280;46415;47.536;19.066;2022-11-18T13:08:35;98704.13;;;6.41;100.00
60583;BME280;46415;47.536;19.066;2022-11-18T13:11:45;98714.69;;;6.36;100.00
60583;BME280;46415;47.536;19.066;2022-11-18T13:14:49;98713.41;;;6.28;100.00
60583;BME280;46415;47.536;19.066;2022-11-18T13:18:17;98719.41;;;6.28;100.00
60583;BME280;46415;47.536;19.066;2022-11-18T13:21:24;98735.69;;;6.29;100.00
60583;BME280;46415;47.536;19.066;2022-11-18T13:24:50;98730.28;;;6.33;100.00
60583;BME280;46415;47.536;19.066;2022-11-18T13:28:37;98745.50;;;6.38;100.00
60583;BME280;46415;47.536;19.066;2022-11-18T13:35:20;98751.97;;;6.29;100.00
60583;BME280;46415;47.536;19.066;2022-11-18T13:38:24;98750.31;;;6.28;100.00
60583;BME280;46415;47.536;19.066;2022-11-18T13:41:33;98752.38;;;6.22;100.00
60583;BME280;46415;47.536;19.066;2022-11-18T13:44:36;98755.97;;;6.19;100.00
60583;BME280;46415;47.536;19.066;2022-11-18T13:47:46;98753.53;;;6.16;100.00
60583;BME280;46415;47.536;19.066;2022-11-18T13:50:53;98749.22;;;6.17;100.00
60583;BME280;46415;47.536;19.066;2022-11-18T13:53:57;98751.78;;;6.17;100.00
60583;BME280;46415;47.536;19.066;2022-11-18T13:57:00;98750.13;;;6.15;100.00
60583;BME280;46415;47.536;19.066;2022-11-18T14:00:06;98760.94;;;6.22;100.00
60583;BME280;46415;47.536;19.066;2022-11-18T14:03:23;98752.22;;;6.25;100.00
60583;BME280;46415;47.536;19.066;2022-11-18T14:06:27;98746.50;;;6.20;100.00
60583;BME280;46415;47.536;19.066;2022-11-18T14:09:31;98741.22;;;6.21;100.00
60583;BME280;46415;47.536;19.066;2022-11-18T14:12:34;98747.06;;;6.25;100.00
60583;BME280;46415;47.536;19.066;2022-11-18T14:15:37;98745.09;;;6.30;100.00
60583;BME280;46415;47.536;19.066;2022-11-18T14:18:47;98739.16;;;6.28;100.00
60583;BME280;46415;47.536;19.066;2022-11-18T14:21:51;98740.66;;;6.32;100.00
60583;BME280;46415;47.536;19.066;2022-11-18T14:25:02;98751.34;;;6.41;100.00
60583;BME280;46415;47.536;19.066;2022-11-18T14:34:25;98752.66;;;6.33;100.00
60583;BME280;46415;47.536;19.066;2022-11-18T14:37:28;98757.78;;;6.33;100.00
60583;BME280;46415;47.536;19.066;2022-11-18T14:40:31;98754.31;;;6.34;100.00
60583;BME280;46415;47.536;19.066;2022-11-18T14:43:34;98765.22;;;6.39;100.00
60583;BME280;46415;47.536;19.066;2022-11-18T14:46:37;98758.37;;;6.38;100.00
60583;BME280;46415;47.536;19.066;2022-11-18T14:49:40;98750.31;;;6.44;100.00
60583;BME280;46415;47.536;19.066;2022-11-18T14:52:43;98746.94;;;6.43;100.00
60583;BME280;46415;47.536;19.066;2022-11-18T14:55:48;98762.31;;;6.45;100.00
60583;BME280;46415;47.536;19.066;2022-11-18T14:58:53;98756.84;;;6.51;100.00
60583;BME280;46415;47.536;19.066;2022-11-18T15:01:56;98756.00;;;6.50;100.00
60583;BME280;46415;47.536;19.066;2022-11-18T15:05:00;98743.03;;;6.52;100.00
60583;BME280;46415;47.536;19.066;2022-11-18T15:08:03;98737.97;;;6.50;100.00
60583;BME280;46415;47.536;19.066;2022-11-18T15:11:06;98742.87;;;6.55;100.00
60583;BME280;46415;47.536;19.066;2022-11-18T15:14:08;98737.72;;;6.55;100.00
60583;BME280;46415;47.536;19.066;2022-11-18T15:17:11;98733.75;;;6.65;100.00
60583;BME280;46415;47.536;19.066;2022-11-18T15:20:18;98738.22;;;6.62;100.00
60583;BME280;46415;47.536;19.066;2022-11-18T15:23:21;98742.72;;;6.58;100.00
60583;BME280;46415;47.536;19.066;2022-11-18T15:26:35;98742.72;;;6.58;100.00
60583;BME280;46415;47.536;19.066;2022-11-18T15:29:40;98748.03;;;6.55;100.00
60583;BME280;46415;47.536;19.066;2022-11-18T15:32:42;98744.53;;;6.56;100.00
60583;BME280;46415;47.536;19.066;2022-11-18T15:35:45;98752.69;;;6.64;100.00
60583;BME280;46415;47.536;19.066;2022-11-18T15:38:49;98748.94;;;6.54;100.00
60583;BME280;46415;47.536;19.066;2022-11-18T15:41:52;98742.97;;;6.53;100.00
60583;BME280;46415;47.536;19.066;2022-11-18T15:44:54;98744.78;;;6.51;100.00
60583;BME280;46415;47.536;19.066;2022-11-18T15:47:57;98755.91;;;6.52;100.00
60583;BME280;46415;47.536;19.066;2022-11-18T15:51:00;98760.09;;;6.54;100.00
60583;BME280;46415;47.536;19.066;2022-11-18T15:54:02;98758.44;;;6.53;100.00
60583;BME280;46415;47.536;19.066;2022-11-18T15:57:05;98757.59;;;6.53;100.00
60583;BME280;46415;47.536;19.066;2022-11-18T16:00:08;98761.72;;;6.55;100.00
60583;BME280;46415;47.536;19.066;2022-11-18T16:03:13;98764.31;;;6.55;100.00
60583;BME280;46415;47.536;19.066;2022-11-18T16:06:16;98763.00;;;6.64;100.00
60583;BME280;46415;47.536;19.066;2022-11-18T16:09:20;98760.28;;;6.67;100.00
60583;BME280;46415;47.536;19.066;2022-11-18T16:12:23;98769.66;;;6.68;100.00
60583;BME280;46415;47.536;19.066;2022-11-18T16:15:44;98772.41;;;6.65;100.00
60583;BME280;46415;47.536;19.066;2022-11-18T16:18:53;98775.81;;;6.66;100.00
60583;BME280;46415;47.536;19.066;2022-11-18T16:21:56;98768.91;;;6.66;100.00
60583;BME280;46415;47.536;19.066;2022-11-18T16:24:59;98770.81;;;6.63;100.00
60583;BME280;46415;47.536;19.066;2022-11-18T16:28:02;98764.59;;;6.67;100.00
60583;BME280;46415;47.536;19.066;2022-11-18T16:31:09;98779.06;;;6.69;100.00
60583;BME280;46415;47.536;19.066;2022-11-18T16:34:30;98777.22;;;6.71;100.00
60583;BME280;46415;47.536;19.066;2022-11-18T16:37:33;98766.16;;;6.69;100.00
60583;BME280;46415;47.536;19.066;2022-11-18T16:40:35;98773.50;;;6.77;100.00
60583;BME280;46415;47.536;19.066;2022-11-18T16:43:38;98778.00;;;6.73;100.00
60583;BME280;46415;47.536;19.066;2022-11-18T16:46:45;98778.31;;;6.67;100.00
60583;BME280;46415;47.536;19.066;2022-11-18T16:49:48;98778.31;;;6.67;100.00
60583;BME280;46415;47.536;19.066;2022-11-18T16:52:51;98779.06;;;6.69;100.00
60583;BME280;46415;47.536;19.066;2022-11-18T16:56:01;98779.75;;;6.73;100.00
60583;BME280;46415;47.536;19.066;2022-11-18T16:59:05;98774.59;;;6.73;100.00
60583;BME280;46415;47.536;19.066;2022-11-18T17:02:10;98785.12;;;6.68;100.00
60583;BME280;46415;47.536;19.066;2022-11-18T17:05:14;98784.38;;;6.66;100.00
60583;BME280;46415;47.536;19.066;2022-11-18T17:08:17;98783.22;;;6.72;100.00
60583;BME280;46415;47.536;19.066;2022-11-18T17:11:20;98787.13;;;6.63;100.00
60583;BME280;46415;47.536;19.066;2022-11-18T17:14:23;98798.84;;;6.69;100.00
60583;BME280;46415;47.536;19.066;2022-11-18T17:17:26;98798.50;;;6.75;100.00
60583;BME280;46415;47.536;19.066;2022-11-18T17:20:29;98795.94;;;6.75;100.00
60583;BME280;46415;47.536;19.066;2022-11-18T17:23:32;98802.44;;;6.66;100.00
60583;BME280;46415;47.536;19.066;2022-11-18T17:26:35;98807.91;;;6.60;100.00
60583;BME280;46415;47.536;19.066;2022-11-18T17:29:37;98808.75;;;6.61;100.00
60583;BME280;46415;47.536;19.066;2022-11-18T17:32:40;98821.53;;;6.62;100.00
60583;BME280;46415;47.536;19.066;2022-11-18T17:35:43;98821.53;;;6.62;100.00
60583;BME280;46415;47.536;19.066;2022-11-18T17:38:48;98824.94;;;6.63;100.00
60583;BME280;46415;47.536;19.066;2022-11-18T17:41:50;98821.22;;;6.68;100.00
60583;BME280;46415;47.536;19.066;2022-11-18T17:45:12;98823.72;;;6.70;100.00
60583;BME280;46415;47.536;19.066;2022-11-18T17:48:18;98820.37;;;6.68;100.00
60583;BME280;46415;47.536;19.066;2022-11-18T17:51:21;98832.47;;;6.67;100.00
60583;BME280;46415;47.536;19.066;2022-11-18T17:54:24;98831.69;;;6.65;100.00